sensor_id;sensor_type;location;lat;lon;timestamp;P1;durP1;ratioP1;P2;durP2;ratioP2
28772;SDS011;15925;51.222;5.678;2023-07-08T00:00:07;7.23;;;1.93;;
28772;SDS011;15925;51.222;5.678;2023-07-08T00:02:39;1.65;;;1.23;;
28772;SDS011;15925;51.222;5.678;2023-07-08T00:05:07;12.07;;;1.70;;
28772;SDS011;15925;51.222;5.678;2023-07-08T00:07:33;2.20;;;1.40;;
28772;SDS011;15925;51.222;5.678;2023-07-08T00:09:59;2.87;;;1.47;;
28772;SDS011;15925;51.222;5.678;2023-07-08T00:12:25;3.70;;;1.50;;
28772;SDS011;15925;51.222;5.678;2023-07-08T00:14:51;4.83;;;1.50;;
28772;SDS011;15925;51.222;5.678;2023-07-08T00:17:16;8.87;;;1.63;;
28772;SDS011;15925;51.222;5.678;2023-07-08T00:19:42;2.40;;;1.35;;
28772;SDS011;15925;51.222;5.678;2023-07-08T00:22:12;4.93;;;1.77;;
28772;SDS011;15925;51.222;5.678;2023-07-08T00:24:39;2.42;;;1.10;;
28772;SDS011;15925;51.222;5.678;2023-07-08T00:27:08;3.40;;;1.75;;
28772;SDS011;15925;51.222;5.678;2023-07-08T00:29:37;2.08;;;1.40;;
28772;SDS011;15925;51.222;5.678;2023-07-08T00:32:10;2.47;;;1.60;;
28772;SDS011;15925;51.222;5.678;2023-07-08T00:34:37;3.45;;;1.35;;
28772;SDS011;15925;51.222;5.678;2023-07-08T00:37:03;3.80;;;1.67;;
28772;SDS011;15925;51.222;5.678;2023-07-08T00:41:57;2.55;;;1.65;;
28772;SDS011;15925;51.222;5.678;2023-07-08T00:44:25;2.65;;;1.80;;
28772;SDS011;15925;51.222;5.678;2023-07-08T00:47:04;2.63;;;1.83;;
28772;SDS011;15925;51.222;5.678;2023-07-08T00:49:40;4.90;;;2.17;;
28772;SDS011;15925;51.222;5.678;2023-07-08T00:52:29;1.90;;;1.45;;
28772;SDS011;15925;51.222;5.678;2023-07-08T00:54:59;3.42;;;1.65;;
28772;SDS011;15925;51.222;5.678;2023-07-08T00:57:34;8.68;;;2.40;;
28772;SDS011;15925;51.222;5.678;2023-07-08T01:02:32;8.93;;;1.83;;
28772;SDS011;15925;51.222;5.678;2023-07-08T01:05:05;3.15;;;1.67;;
28772;SDS011;15925;51.222;5.678;2023-07-08T01:07:38;7.57;;;1.67;;
28772;SDS011;15925;51.222;5.678;2023-07-08T01:10:08;9.63;;;1.92;;
28772;SDS011;15925;51.222;5.678;2023-07-08T01:12:45;5.38;;;2.22;;
28772;SDS011;15925;51.222;5.678;2023-07-08T01:15:13;7.05;;;1.85;;
28772;SDS011;15925;51.222;5.678;2023-07-08T01:17:40;2.22;;;1.42;;
28772;SDS011;15925;51.222;5.678;2023-07-08T01:20:08;3.28;;;1.63;;
28772;SDS011;15925;51.222;5.678;2023-07-08T01:22:40;1.95;;;1.55;;
28772;SDS011;15925;51.222;5.678;2023-07-08T01:25:07;6.05;;;2.08;;
28772;SDS011;15925;51.222;5.678;2023-07-08T01:27:36;3.20;;;1.40;;
28772;SDS011;15925;51.222;5.678;2023-07-08T01:30:04;12.57;;;1.73;;
28772;SDS011;15925;51.222;5.678;2023-07-08T01:32:32;3.67;;;1.23;;
28772;SDS011;15925;51.222;5.678;2023-07-08T01:35:01;1.80;;;1.27;;
28772;SDS011;15925;51.222;5.678;2023-07-08T01:40:22;2.88;;;1.55;;
28772;SDS011;15925;51.222;5.678;2023-07-08T01:42:59;2.90;;;1.38;;
28772;SDS011;15925;51.222;5.678;2023-07-08T01:47:59;4.93;;;1.77;;
28772;SDS011;15925;51.222;5.678;2023-07-08T01:50:29;1.70;;;1.05;;
28772;SDS011;15925;51.222;5.678;2023-07-08T01:52:58;4.00;;;1.60;;
28772;SDS011;15925;51.222;5.678;2023-07-08T01:55:26;3.42;;;1.45;;
28772;SDS011;15925;51.222;5.678;2023-07-08T01:57:56;5.90;;;1.38;;
28772;SDS011;15925;51.222;5.678;2023-07-08T02:00:22;3.60;;;1.27;;
28772;SDS011;15925;51.222;5.678;2023-07-08T02:02:48;2.97;;;1.60;;
28772;SDS011;15925;51.222;5.678;2023-07-08T02:05:15;5.10;;;1.83;;
28772;SDS011;15925;51.222;5.678;2023-07-08T02:07:41;5.25;;;2.30;;
28772;SDS011;15925;51.222;5.678;2023-07-08T02:10:07;2.58;;;1.48;;
28772;SDS011;15925;51.222;5.678;2023-07-08T02:12:33;3.75;;;1.90;;
28772;SDS011;15925;51.222;5.678;2023-07-08T02:15:00;10.18;;;2.33;;
28772;SDS011;15925;51.222;5.678;2023-07-08T02:17:26;9.82;;;1.98;;
28772;SDS011;15925;51.222;5.678;2023-07-08T02:19:54;5.40;;;1.50;;
28772;SDS011;15925;51.222;5.678;2023-07-08T02:22:21;4.05;;;2.25;;
28772;SDS011;15925;51.222;5.678;2023-07-08T02:24:47;10.55;;;2.03;;
28772;SDS011;15925;51.222;5.678;2023-07-08T02:27:13;9.25;;;1.98;;
28772;SDS011;15925;51.222;5.678;2023-07-08T02:29:39;4.25;;;1.88;;
28772;SDS011;15925;51.222;5.678;2023-07-08T02:32:05;3.53;;;2.15;;
28772;SDS011;15925;51.222;5.678;2023-07-08T02:34:32;3.78;;;2.30;;
28772;SDS011;15925;51.222;5.678;2023-07-08T02:36:58;2.80;;;1.93;;
28772;SDS011;15925;51.222;5.678;2023-07-08T02:39:24;2.60;;;1.92;;
28772;SDS011;15925;51.222;5.678;2023-07-08T02:41:50;3.40;;;1.53;;
28772;SDS011;15925;51.222;5.678;2023-07-08T02:44:15;6.03;;;1.42;;
28772;SDS011;15925;51.222;5.678;2023-07-08T02:46:41;16.50;;;2.63;;
28772;SDS011;15925;51.222;5.678;2023-07-08T02:49:07;4.80;;;2.00;;
28772;SDS011;15925;51.222;5.678;2023-07-08T02:51:33;7.03;;;2.07;;
28772;SDS011;15925;51.222;5.678;2023-07-08T02:53:59;3.17;;;2.00;;
28772;SDS011;15925;51.222;5.678;2023-07-08T02:56:24;5.13;;;1.93;;
28772;SDS011;15925;51.222;5.678;2023-07-08T02:58:53;7.72;;;2.45;;
28772;SDS011;15925;51.222;5.678;2023-07-08T03:01:19;3.22;;;2.08;;
28772;SDS011;15925;51.222;5.678;2023-07-08T03:03:45;4.73;;;2.10;;
28772;SDS011;15925;51.222;5.678;2023-07-08T03:06:12;5.82;;;2.17;;
28772;SDS011;15925;51.222;5.678;2023-07-08T03:08:38;9.38;;;2.05;;
28772;SDS011;15925;51.222;5.678;2023-07-08T03:11:04;4.47;;;1.73;;
28772;SDS011;15925;51.222;5.678;2023-07-08T03:13:31;3.38;;;1.73;;
28772;SDS011;15925;51.222;5.678;2023-07-08T03:15:59;2.33;;;1.35;;
28772;SDS011;15925;51.222;5.678;2023-07-08T03:18:28;3.97;;;1.65;;
28772;SDS011;15925;51.222;5.678;2023-07-08T03:20:55;3.05;;;2.33;;
28772;SDS011;15925;51.222;5.678;2023-07-08T03:23:22;2.38;;;1.77;;
28772;SDS011;15925;51.222;5.678;2023-07-08T03:25:50;2.47;;;1.38;;
28772;SDS011;15925;51.222;5.678;2023-07-08T03:28:17;4.40;;;1.55;;
28772;SDS011;15925;51.222;5.678;2023-07-08T03:30:44;3.08;;;1.45;;
28772;SDS011;15925;51.222;5.678;2023-07-08T03:33:11;1.65;;;1.38;;
28772;SDS011;15925;51.222;5.678;2023-07-08T03:35:39;5.25;;;1.55;;
28772;SDS011;15925;51.222;5.678;2023-07-08T03:38:05;8.70;;;2.17;;
28772;SDS011;15925;51.222;5.678;2023-07-08T03:40:31;4.00;;;1.67;;
28772;SDS011;15925;51.222;5.678;2023-07-08T03:42:57;2.22;;;1.00;;
28772;SDS011;15925;51.222;5.678;2023-07-08T03:45:26;2.00;;;1.10;;
28772;SDS011;15925;51.222;5.678;2023-07-08T03:47:52;3.77;;;1.67;;
28772;SDS011;15925;51.222;5.678;2023-07-08T03:50:19;10.82;;;1.88;;
28772;SDS011;15925;51.222;5.678;2023-07-08T03:52:47;5.63;;;2.08;;
28772;SDS011;15925;51.222;5.678;2023-07-08T03:55:14;4.65;;;1.67;;
28772;SDS011;15925;51.222;5.678;2023-07-08T03:57:42;3.25;;;1.65;;
28772;SDS011;15925;51.222;5.678;2023-07-08T04:00:09;5.95;;;1.98;;
28772;SDS011;15925;51.222;5.678;2023-07-08T04:02:39;3.88;;;2.40;;
28772;SDS011;15925;51.222;5.678;2023-07-08T04:05:18;4.47;;;2.25;;
28772;SDS011;15925;51.222;5.678;2023-07-08T04:07:47;5.63;;;2.22;;
28772;SDS011;15925;51.222;5.678;2023-07-08T04:10:13;7.00;;;2.00;;
28772;SDS011;15925;51.222;5.678;2023-07-08T04:12:39;4.97;;;1.60;;
28772;SDS011;15925;51.222;5.678;2023-07-08T04:15:09;4.43;;;2.10;;
28772;SDS011;15925;51.222;5.678;2023-07-08T04:17:46;3.03;;;1.30;;
28772;SDS011;15925;51.222;5.678;2023-07-08T04:20:14;3.53;;;1.58;;
28772;SDS011;15925;51.222;5.678;2023-07-08T04:22:43;2.55;;;1.55;;
28772;SDS011;15925;51.222;5.678;2023-07-08T04:25:10;12.50;;;3.15;;
28772;SDS011;15925;51.222;5.678;2023-07-08T04:27:37;4.50;;;2.42;;
28772;SDS011;15925;51.222;5.678;2023-07-08T04:30:04;3.40;;;2.65;;
28772;SDS011;15925;51.222;5.678;2023-07-08T04:32:30;5.82;;;2.13;;
28772;SDS011;15925;51.222;5.678;2023-07-08T04:34:56;17.65;;;3.10;;
28772;SDS011;15925;51.222;5.678;2023-07-08T04:37:22;3.78;;;2.38;;
28772;SDS011;15925;51.222;5.678;2023-07-08T04:39:48;4.30;;;1.93;;
28772;SDS011;15925;51.222;5.678;2023-07-08T04:42:14;3.90;;;2.37;;
28772;SDS011;15925;51.222;5.678;2023-07-08T04:44:42;5.25;;;2.35;;
28772;SDS011;15925;51.222;5.678;2023-07-08T04:47:09;3.05;;;2.05;;
28772;SDS011;15925;51.222;5.678;2023-07-08T04:49:37;5.28;;;2.53;;
28772;SDS011;15925;51.222;5.678;2023-07-08T04:52:03;5.15;;;2.33;;
28772;SDS011;15925;51.222;5.678;2023-07-08T04:54:29;3.67;;;1.95;;
28772;SDS011;15925;51.222;5.678;2023-07-08T04:56:55;5.00;;;2.50;;
28772;SDS011;15925;51.222;5.678;2023-07-08T04:59:22;7.55;;;2.83;;
28772;SDS011;15925;51.222;5.678;2023-07-08T05:01:49;8.35;;;2.13;;
28772;SDS011;15925;51.222;5.678;2023-07-08T05:04:17;3.83;;;2.40;;
28772;SDS011;15925;51.222;5.678;2023-07-08T05:06:44;8.25;;;2.80;;
28772;SDS011;15925;51.222;5.678;2023-07-08T05:09:10;6.43;;;2.97;;
28772;SDS011;15925;51.222;5.678;2023-07-08T05:11:36;6.60;;;2.45;;
28772;SDS011;15925;51.222;5.678;2023-07-08T05:14:03;7.07;;;3.15;;
28772;SDS011;15925;51.222;5.678;2023-07-08T05:21:23;15.30;;;2.80;;
28772;SDS011;15925;51.222;5.678;2023-07-08T05:23:49;8.95;;;2.60;;
28772;SDS011;15925;51.222;5.678;2023-07-08T05:26:16;4.20;;;2.70;;
28772;SDS011;15925;51.222;5.678;2023-07-08T05:28:42;5.03;;;2.47;;
28772;SDS011;15925;51.222;5.678;2023-07-08T05:31:08;6.72;;;3.13;;
28772;SDS011;15925;51.222;5.678;2023-07-08T05:33:34;6.15;;;2.78;;
28772;SDS011;15925;51.222;5.678;2023-07-08T05:36:00;10.63;;;2.33;;
28772;SDS011;15925;51.222;5.678;2023-07-08T05:38:26;10.52;;;2.72;;
28772;SDS011;15925;51.222;5.678;2023-07-08T05:40:56;10.48;;;2.60;;
28772;SDS011;15925;51.222;5.678;2023-07-08T05:43:23;6.68;;;2.80;;
28772;SDS011;15925;51.222;5.678;2023-07-08T05:45:49;3.60;;;2.15;;
28772;SDS011;15925;51.222;5.678;2023-07-08T05:48:14;12.33;;;3.00;;
28772;SDS011;15925;51.222;5.678;2023-07-08T05:50:40;11.90;;;3.20;;
28772;SDS011;15925;51.222;5.678;2023-07-08T05:53:09;4.00;;;2.30;;
28772;SDS011;15925;51.222;5.678;2023-07-08T05:55:36;5.00;;;2.90;;
28772;SDS011;15925;51.222;5.678;2023-07-08T05:58:02;3.83;;;1.88;;
28772;SDS011;15925;51.222;5.678;2023-07-08T06:00:27;7.97;;;2.30;;
28772;SDS011;15925;51.222;5.678;2023-07-08T06:02:53;13.27;;;2.87;;
28772;SDS011;15925;51.222;5.678;2023-07-08T06:05:19;7.40;;;3.13;;
28772;SDS011;15925;51.222;5.678;2023-07-08T06:07:45;7.28;;;3.20;;
28772;SDS011;15925;51.222;5.678;2023-07-08T06:10:11;6.93;;;2.80;;
28772;SDS011;15925;51.222;5.678;2023-07-08T06:12:37;14.00;;;2.97;;
28772;SDS011;15925;51.222;5.678;2023-07-08T06:15:03;9.75;;;4.47;;
28772;SDS011;15925;51.222;5.678;2023-07-08T06:17:29;5.03;;;2.63;;
28772;SDS011;15925;51.222;5.678;2023-07-08T06:19:54;8.23;;;3.00;;
28772;SDS011;15925;51.222;5.678;2023-07-08T06:22:20;11.03;;;2.53;;
28772;SDS011;15925;51.222;5.678;2023-07-08T06:24:46;3.93;;;2.23;;
28772;SDS011;15925;51.222;5.678;2023-07-08T06:27:12;10.32;;;3.15;;
28772;SDS011;15925;51.222;5.678;2023-07-08T06:29:38;14.25;;;3.42;;
28772;SDS011;15925;51.222;5.678;2023-07-08T06:32:04;12.60;;;3.20;;
28772;SDS011;15925;51.222;5.678;2023-07-08T06:34:30;11.32;;;2.92;;
28772;SDS011;15925;51.222;5.678;2023-07-08T06:36:56;6.97;;;3.10;;
28772;SDS011;15925;51.222;5.678;2023-07-08T06:39:22;5.67;;;3.07;;
28772;SDS011;15925;51.222;5.678;2023-07-08T06:41:48;5.53;;;2.70;;
28772;SDS011;15925;51.222;5.678;2023-07-08T06:44:15;6.50;;;2.92;;
28772;SDS011;15925;51.222;5.678;2023-07-08T06:46:41;16.50;;;2.87;;
28772;SDS011;15925;51.222;5.678;2023-07-08T06:49:07;11.30;;;3.08;;
28772;SDS011;15925;51.222;5.678;2023-07-08T06:51:34;7.05;;;2.95;;
28772;SDS011;15925;51.222;5.678;2023-07-08T06:54:00;9.90;;;3.50;;
28772;SDS011;15925;51.222;5.678;2023-07-08T06:56:30;7.80;;;3.00;;
28772;SDS011;15925;51.222;5.678;2023-07-08T06:58:56;5.93;;;2.65;;
28772;SDS011;15925;51.222;5.678;2023-07-08T07:01:22;20.20;;;2.70;;
28772;SDS011;15925;51.222;5.678;2023-07-08T07:03:49;5.13;;;2.53;;
28772;SDS011;15925;51.222;5.678;2023-07-08T07:06:15;5.80;;;2.22;;
28772;SDS011;15925;51.222;5.678;2023-07-08T07:11:07;7.75;;;3.00;;
28772;SDS011;15925;51.222;5.678;2023-07-08T07:13:33;8.20;;;3.10;;
28772;SDS011;15925;51.222;5.678;2023-07-08T07:15:59;8.87;;;3.07;;
28772;SDS011;15925;51.222;5.678;2023-07-08T07:18:25;5.50;;;3.53;;
28772;SDS011;15925;51.222;5.678;2023-07-08T07:20:52;19.00;;;2.90;;
28772;SDS011;15925;51.222;5.678;2023-07-08T07:23:18;9.80;;;3.03;;
28772;SDS011;15925;51.222;5.678;2023-07-08T07:25:45;4.78;;;2.97;;
28772;SDS011;15925;51.222;5.678;2023-07-08T07:28:14;11.55;;;3.53;;
28772;SDS011;15925;51.222;5.678;2023-07-08T07:30:42;12.82;;;2.92;;
28772;SDS011;15925;51.222;5.678;2023-07-08T07:33:09;11.40;;;3.35;;
28772;SDS011;15925;51.222;5.678;2023-07-08T07:35:35;9.40;;;3.53;;
28772;SDS011;15925;51.222;5.678;2023-07-08T07:38:00;9.93;;;3.05;;
28772;SDS011;15925;51.222;5.678;2023-07-08T07:40:26;8.98;;;2.60;;
28772;SDS011;15925;51.222;5.678;2023-07-08T07:42:52;13.33;;;2.97;;
28772;SDS011;15925;51.222;5.678;2023-07-08T07:45:18;8.60;;;2.97;;
28772;SDS011;15925;51.222;5.678;2023-07-08T07:47:48;6.78;;;2.80;;
28772;SDS011;15925;51.222;5.678;2023-07-08T07:50:13;5.88;;;2.55;;
28772;SDS011;15925;51.222;5.678;2023-07-08T07:52:40;6.87;;;4.10;;
28772;SDS011;15925;51.222;5.678;2023-07-08T07:55:07;14.30;;;3.20;;
28772;SDS011;15925;51.222;5.678;2023-07-08T07:57:33;7.53;;;3.00;;
28772;SDS011;15925;51.222;5.678;2023-07-08T07:59:59;6.57;;;2.33;;
28772;SDS011;15925;51.222;5.678;2023-07-08T08:02:25;34.53;;;3.78;;
28772;SDS011;15925;51.222;5.678;2023-07-08T08:04:51;7.72;;;3.00;;
28772;SDS011;15925;51.222;5.678;2023-07-08T08:07:16;11.13;;;3.40;;
28772;SDS011;15925;51.222;5.678;2023-07-08T08:09:42;8.85;;;2.70;;
28772;SDS011;15925;51.222;5.678;2023-07-08T08:12:09;10.80;;;3.53;;
28772;SDS011;15925;51.222;5.678;2023-07-08T08:14:36;6.20;;;2.38;;
28772;SDS011;15925;51.222;5.678;2023-07-08T08:17:02;7.90;;;3.35;;
28772;SDS011;15925;51.222;5.678;2023-07-08T08:19:29;13.38;;;3.70;;
28772;SDS011;15925;51.222;5.678;2023-07-08T08:21:55;9.98;;;3.08;;
28772;SDS011;15925;51.222;5.678;2023-07-08T08:24:21;8.65;;;3.70;;
28772;SDS011;15925;51.222;5.678;2023-07-08T08:26:46;8.40;;;3.63;;
28772;SDS011;15925;51.222;5.678;2023-07-08T08:29:12;7.40;;;3.28;;
28772;SDS011;15925;51.222;5.678;2023-07-08T08:31:38;10.75;;;2.78;;
28772;SDS011;15925;51.222;5.678;2023-07-08T08:34:04;11.38;;;3.97;;
28772;SDS011;15925;51.222;5.678;2023-07-08T08:36:30;7.95;;;3.03;;
28772;SDS011;15925;51.222;5.678;2023-07-08T08:38:56;14.05;;;2.80;;
28772;SDS011;15925;51.222;5.678;2023-07-08T08:43:54;9.95;;;3.17;;
28772;SDS011;15925;51.222;5.678;2023-07-08T08:46:29;6.93;;;2.85;;
28772;SDS011;15925;51.222;5.678;2023-07-08T08:49:15;8.95;;;2.92;;
28772;SDS011;15925;51.222;5.678;2023-07-08T08:51:47;5.50;;;2.83;;
28772;SDS011;15925;51.222;5.678;2023-07-08T08:54:16;7.75;;;3.55;;
28772;SDS011;15925;51.222;5.678;2023-07-08T08:59:20;13.82;;;3.53;;
28772;SDS011;15925;51.222;5.678;2023-07-08T09:04:31;10.93;;;3.97;;
28772;SDS011;15925;51.222;5.678;2023-07-08T09:07:06;7.13;;;3.00;;
28772;SDS011;15925;51.222;5.678;2023-07-08T09:09:38;9.25;;;3.42;;
28772;SDS011;15925;51.222;5.678;2023-07-08T09:12:24;8.63;;;3.28;;
28772;SDS011;15925;51.222;5.678;2023-07-08T09:14:51;8.88;;;3.25;;
28772;SDS011;15925;51.222;5.678;2023-07-08T09:17:27;15.07;;;3.05;;
28772;SDS011;15925;51.222;5.678;2023-07-08T09:27:50;4.82;;;2.65;;
28772;SDS011;15925;51.222;5.678;2023-07-08T09:30:17;9.00;;;3.45;;
28772;SDS011;15925;51.222;5.678;2023-07-08T09:32:48;6.53;;;2.60;;
28772;SDS011;15925;51.222;5.678;2023-07-08T09:35:20;13.63;;;2.92;;
28772;SDS011;15925;51.222;5.678;2023-07-08T09:37:49;8.68;;;3.15;;
28772;SDS011;15925;51.222;5.678;2023-07-08T09:40:22;15.00;;;4.05;;
28772;SDS011;15925;51.222;5.678;2023-07-08T09:42:59;8.70;;;2.67;;
28772;SDS011;15925;51.222;5.678;2023-07-08T09:45:48;8.55;;;3.08;;
28772;SDS011;15925;51.222;5.678;2023-07-08T09:48:24;6.40;;;3.13;;
28772;SDS011;15925;51.222;5.678;2023-07-08T09:50:52;8.80;;;3.03;;
28772;SDS011;15925;51.222;5.678;2023-07-08T09:53:19;7.05;;;2.53;;
28772;SDS011;15925;51.222;5.678;2023-07-08T09:55:45;4.57;;;2.45;;
28772;SDS011;15925;51.222;5.678;2023-07-08T09:58:13;8.02;;;2.80;;
28772;SDS011;15925;51.222;5.678;2023-07-08T10:00:45;10.25;;;2.88;;
28772;SDS011;15925;51.222;5.678;2023-07-08T10:03:31;12.27;;;3.13;;
28772;SDS011;15925;51.222;5.678;2023-07-08T10:06:02;10.55;;;2.53;;
28772;SDS011;15925;51.222;5.678;2023-07-08T10:08:37;9.75;;;2.60;;
28772;SDS011;15925;51.222;5.678;2023-07-08T10:13:55;6.13;;;2.33;;
28772;SDS011;15925;51.222;5.678;2023-07-08T10:16:25;9.43;;;2.45;;
28772;SDS011;15925;51.222;5.678;2023-07-08T10:18:56;7.80;;;2.75;;
28772;SDS011;15925;51.222;5.678;2023-07-08T10:26:39;4.97;;;2.70;;
28772;SDS011;15925;51.222;5.678;2023-07-08T10:29:18;11.77;;;2.85;;
28772;SDS011;15925;51.222;5.678;2023-07-08T10:43:14;6.72;;;2.45;;
28772;SDS011;15925;51.222;5.678;2023-07-08T10:56:26;5.38;;;2.97;;
28772;SDS011;15925;51.222;5.678;2023-07-08T11:07:28;7.35;;;2.83;;
28772;SDS011;15925;51.222;5.678;2023-07-08T11:10:49;10.00;;;2.78;;
28772;SDS011;15925;51.222;5.678;2023-07-08T11:21:57;5.45;;;2.50;;
28772;SDS011;15925;51.222;5.678;2023-07-08T11:26:58;6.43;;;3.00;;
28772;SDS011;15925;51.222;5.678;2023-07-08T11:32:21;24.98;;;3.42;;
28772;SDS011;15925;51.222;5.678;2023-07-08T11:34:51;6.45;;;2.40;;
28772;SDS011;15925;51.222;5.678;2023-07-08T11:37:20;6.93;;;3.28;;
28772;SDS011;15925;51.222;5.678;2023-07-08T11:39:53;10.57;;;3.45;;
28772;SDS011;15925;51.222;5.678;2023-07-08T11:42:41;5.88;;;2.72;;
28772;SDS011;15925;51.222;5.678;2023-07-08T11:47:40;4.53;;;2.40;;
28772;SDS011;15925;51.222;5.678;2023-07-08T11:53:02;6.90;;;2.60;;
28772;SDS011;15925;51.222;5.678;2023-07-08T11:55:36;9.15;;;2.22;;
28772;SDS011;15925;51.222;5.678;2023-07-08T11:58:20;6.65;;;2.60;;
28772;SDS011;15925;51.222;5.678;2023-07-08T12:01:03;4.35;;;2.17;;
28772;SDS011;15925;51.222;5.678;2023-07-08T12:03:46;6.22;;;2.22;;
28772;SDS011;15925;51.222;5.678;2023-07-08T12:09:13;5.88;;;2.72;;
28772;SDS011;15925;51.222;5.678;2023-07-08T12:11:56;8.52;;;2.80;;
28772;SDS011;15925;51.222;5.678;2023-07-08T12:14:30;9.75;;;3.42;;
28772;SDS011;15925;51.222;5.678;2023-07-08T12:16:57;7.15;;;2.33;;
28772;SDS011;15925;51.222;5.678;2023-07-08T12:21:51;10.38;;;2.70;;
28772;SDS011;15925;51.222;5.678;2023-07-08T12:24:17;7.53;;;2.45;;
28772;SDS011;15925;51.222;5.678;2023-07-08T12:26:43;8.05;;;1.70;;
28772;SDS011;15925;51.222;5.678;2023-07-08T12:31:39;7.07;;;2.70;;
28772;SDS011;15925;51.222;5.678;2023-07-08T12:34:10;8.30;;;2.15;;
28772;SDS011;15925;51.222;5.678;2023-07-08T12:36:42;5.90;;;2.45;;
28772;SDS011;15925;51.222;5.678;2023-07-08T12:39:13;6.55;;;2.92;;
28772;SDS011;15925;51.222;5.678;2023-07-08T12:41:41;7.63;;;2.30;;
28772;SDS011;15925;51.222;5.678;2023-07-08T12:44:19;9.73;;;2.13;;
28772;SDS011;15925;51.222;5.678;2023-07-08T12:46:47;8.20;;;2.00;;
28772;SDS011;15925;51.222;5.678;2023-07-08T12:49:15;9.45;;;3.30;;
28772;SDS011;15925;51.222;5.678;2023-07-08T12:51:42;7.07;;;3.35;;
28772;SDS011;15925;51.222;5.678;2023-07-08T12:54:09;9.75;;;2.78;;
28772;SDS011;15925;51.222;5.678;2023-07-08T12:56:36;10.82;;;2.92;;
28772;SDS011;15925;51.222;5.678;2023-07-08T12:59:03;9.80;;;2.28;;
28772;SDS011;15925;51.222;5.678;2023-07-08T13:01:31;5.22;;;2.58;;
28772;SDS011;15925;51.222;5.678;2023-07-08T13:04:00;6.05;;;2.50;;
28772;SDS011;15925;51.222;5.678;2023-07-08T13:06:32;7.00;;;2.30;;
28772;SDS011;15925;51.222;5.678;2023-07-08T13:09:02;8.55;;;2.78;;
28772;SDS011;15925;51.222;5.678;2023-07-08T13:11:33;12.98;;;2.97;;
28772;SDS011;15925;51.222;5.678;2023-07-08T13:14:01;6.55;;;2.83;;
28772;SDS011;15925;51.222;5.678;2023-07-08T13:16:32;12.15;;;2.80;;
28772;SDS011;15925;51.222;5.678;2023-07-08T13:19:00;5.32;;;2.30;;
28772;SDS011;15925;51.222;5.678;2023-07-08T13:21:26;8.85;;;2.78;;
28772;SDS011;15925;51.222;5.678;2023-07-08T13:23:56;12.18;;;2.58;;
28772;SDS011;15925;51.222;5.678;2023-07-08T13:26:23;5.78;;;2.75;;
28772;SDS011;15925;51.222;5.678;2023-07-08T13:29:04;6.82;;;2.28;;
28772;SDS011;15925;51.222;5.678;2023-07-08T13:31:38;3.83;;;1.88;;
28772;SDS011;15925;51.222;5.678;2023-07-08T13:34:08;7.53;;;2.83;;
28772;SDS011;15925;51.222;5.678;2023-07-08T13:36:39;6.28;;;2.50;;
28772;SDS011;15925;51.222;5.678;2023-07-08T13:39:07;8.57;;;2.70;;
28772;SDS011;15925;51.222;5.678;2023-07-08T13:41:41;5.57;;;2.80;;
28772;SDS011;15925;51.222;5.678;2023-07-08T13:44:09;8.15;;;2.67;;
28772;SDS011;15925;51.222;5.678;2023-07-08T13:49:22;4.70;;;2.20;;
28772;SDS011;15925;51.222;5.678;2023-07-08T13:52:04;6.10;;;2.15;;
28772;SDS011;15925;51.222;5.678;2023-07-08T13:54:44;4.22;;;2.38;;
28772;SDS011;15925;51.222;5.678;2023-07-08T13:57:38;9.98;;;2.92;;
28772;SDS011;15925;51.222;5.678;2023-07-08T14:00:05;9.07;;;2.67;;
28772;SDS011;15925;51.222;5.678;2023-07-08T14:02:37;8.93;;;2.40;;
28772;SDS011;15925;51.222;5.678;2023-07-08T14:05:11;8.02;;;3.20;;
28772;SDS011;15925;51.222;5.678;2023-07-08T14:07:39;7.22;;;2.40;;
28772;SDS011;15925;51.222;5.678;2023-07-08T14:12:36;5.72;;;2.75;;
28772;SDS011;15925;51.222;5.678;2023-07-08T14:17:27;14.55;;;2.55;;
28772;SDS011;15925;51.222;5.678;2023-07-08T14:22:25;6.60;;;2.20;;
28772;SDS011;15925;51.222;5.678;2023-07-08T14:24:53;6.10;;;2.55;;
28772;SDS011;15925;51.222;5.678;2023-07-08T14:27:20;8.88;;;2.22;;
28772;SDS011;15925;51.222;5.678;2023-07-08T14:32:14;4.25;;;2.03;;
28772;SDS011;15925;51.222;5.678;2023-07-08T14:34:48;4.97;;;2.08;;
28772;SDS011;15925;51.222;5.678;2023-07-08T14:37:19;4.97;;;2.15;;
28772;SDS011;15925;51.222;5.678;2023-07-08T14:39:46;6.03;;;2.55;;
28772;SDS011;15925;51.222;5.678;2023-07-08T14:42:13;6.15;;;2.78;;
28772;SDS011;15925;51.222;5.678;2023-07-08T14:44:44;5.43;;;2.38;;
28772;SDS011;15925;51.222;5.678;2023-07-08T14:47:13;6.68;;;2.70;;
28772;SDS011;15925;51.222;5.678;2023-07-08T14:49:40;5.88;;;2.75;;
28772;SDS011;15925;51.222;5.678;2023-07-08T14:54:32;4.32;;;2.63;;
28772;SDS011;15925;51.222;5.678;2023-07-08T14:56:58;9.85;;;3.08;;
28772;SDS011;15925;51.222;5.678;2023-07-08T14:59:26;4.60;;;2.20;;
28772;SDS011;15925;51.222;5.678;2023-07-08T15:01:55;4.72;;;2.75;;
28772;SDS011;15925;51.222;5.678;2023-07-08T15:04:22;9.63;;;2.80;;
28772;SDS011;15925;51.222;5.678;2023-07-08T15:09:15;4.57;;;1.90;;
28772;SDS011;15925;51.222;5.678;2023-07-08T15:11:43;4.82;;;2.38;;
28772;SDS011;15925;51.222;5.678;2023-07-08T15:14:27;7.25;;;2.65;;
28772;SDS011;15925;51.222;5.678;2023-07-08T15:16:53;7.10;;;2.60;;
28772;SDS011;15925;51.222;5.678;2023-07-08T15:21:46;9.85;;;3.10;;
28772;SDS011;15925;51.222;5.678;2023-07-08T15:26:41;7.20;;;2.67;;
28772;SDS011;15925;51.222;5.678;2023-07-08T15:29:17;5.68;;;2.33;;
28772;SDS011;15925;51.222;5.678;2023-07-08T15:31:45;5.60;;;2.50;;
28772;SDS011;15925;51.222;5.678;2023-07-08T15:34:15;7.60;;;3.15;;
28772;SDS011;15925;51.222;5.678;2023-07-08T15:36:43;4.28;;;2.28;;
28772;SDS011;15925;51.222;5.678;2023-07-08T15:41:34;5.63;;;2.97;;
28772;SDS011;15925;51.222;5.678;2023-07-08T15:44:01;4.00;;;2.58;;
28772;SDS011;15925;51.222;5.678;2023-07-08T15:48:56;8.25;;;3.33;;
28772;SDS011;15925;51.222;5.678;2023-07-08T15:53:48;7.68;;;2.88;;
28772;SDS011;15925;51.222;5.678;2023-07-08T15:58:42;7.25;;;3.20;;
28772;SDS011;15925;51.222;5.678;2023-07-08T16:01:17;5.25;;;2.67;;
28772;SDS011;15925;51.222;5.678;2023-07-08T16:03:46;7.75;;;2.92;;
28772;SDS011;15925;51.222;5.678;2023-07-08T16:06:17;5.55;;;2.75;;
28772;SDS011;15925;51.222;5.678;2023-07-08T16:08:43;6.35;;;2.72;;
28772;SDS011;15925;51.222;5.678;2023-07-08T16:11:14;5.90;;;2.53;;
28772;SDS011;15925;51.222;5.678;2023-07-08T16:13:42;7.47;;;2.70;;
28772;SDS011;15925;51.222;5.678;2023-07-08T16:16:12;5.10;;;2.60;;
28772;SDS011;15925;51.222;5.678;2023-07-08T16:18:38;6.28;;;2.60;;
28772;SDS011;15925;51.222;5.678;2023-07-08T16:23:30;4.93;;;2.63;;
28772;SDS011;15925;51.222;5.678;2023-07-08T16:28:41;6.35;;;2.35;;
28772;SDS011;15925;51.222;5.678;2023-07-08T16:31:23;7.13;;;2.17;;
28772;SDS011;15925;51.222;5.678;2023-07-08T16:33:52;8.45;;;2.97;;
28772;SDS011;15925;51.222;5.678;2023-07-08T16:36:36;7.45;;;3.47;;
28772;SDS011;15925;51.222;5.678;2023-07-08T16:39:03;4.80;;;2.53;;
28772;SDS011;15925;51.222;5.678;2023-07-08T16:43:58;7.97;;;3.25;;
28772;SDS011;15925;51.222;5.678;2023-07-08T16:46:24;7.95;;;3.72;;
28772;SDS011;15925;51.222;5.678;2023-07-08T16:48:50;6.72;;;2.63;;
28772;SDS011;15925;51.222;5.678;2023-07-08T16:51:17;7.40;;;2.63;;
28772;SDS011;15925;51.222;5.678;2023-07-08T16:53:51;7.20;;;3.28;;
28772;SDS011;15925;51.222;5.678;2023-07-08T16:56:23;5.60;;;2.90;;
28772;SDS011;15925;51.222;5.678;2023-07-08T17:01:20;5.60;;;2.88;;
28772;SDS011;15925;51.222;5.678;2023-07-08T17:03:48;4.95;;;2.85;;
28772;SDS011;15925;51.222;5.678;2023-07-08T17:06:15;9.35;;;2.83;;
28772;SDS011;15925;51.222;5.678;2023-07-08T17:11:07;4.35;;;2.65;;
28772;SDS011;15925;51.222;5.678;2023-07-08T17:15:58;9.63;;;2.35;;
28772;SDS011;15925;51.222;5.678;2023-07-08T17:18:24;6.18;;;2.75;;
28772;SDS011;15925;51.222;5.678;2023-07-08T17:20:51;5.32;;;3.13;;